Terminal Aerodrome Forecast
Issued by NWS

Home | Current Version | Previous Version | Text Only | Print | Product List | Glossary On
Versions: 1 2 3 4 5 6 7 8 9 10 11 12 13
414
FTUS41 KPBZ 242320
TAFDUJ
TAF
KDUJ 242320Z 2500/2524 11008KT P6SM -RA OVC035
     FM250300 08005KT P6SM -RA OVC008
     FM251400 36005KT P6SM VCSH OVC003
     FM252000 32006KT P6SM OVC012=

USA.gov is the U.S. government's official web portal to all federal, state and local government web resources and services.